Playa Del Carmen, ROO, Mexico
Current Conditions -  °F | °C
As of 3:41 PM on Thursday 23 Oct 2014 (Local Time) from MMCZ Reporting Station
Broken Clouds Broken Clouds  
Wind Chill: 81°   Ceiling: 25000
Heat Index: 87°   Visibility: 8mi
Dew Point: 77°   Wind: 5mph
Humidity: 89%   Direction: 80°E
Pressure: 29.75"   Gusts: NA
Location:  20.62°N, 87.07°W
Report Text: MMCZ 232041Z 08004KT 8SM SCT015TCU SCT080 BKN250 27/25 A2975 RMK SLP082 57004 900 8/256 VC CB RTS
Loading
Personal Weather Stations






























Interactive Weather Map New forecast layout! Learn more

10-Day Weather Forecast

Advertisements
Track Severe Weather on mobile